createdAt,value
2022-10-09T00:03:23.187Z,99358.91
2022-10-09T00:08:27.581Z,99359.94
2022-10-09T00:13:30.291Z,99356.66
2022-10-09T00:18:33.347Z,99359.53
2022-10-09T00:23:37.507Z,99364.03
2022-10-09T00:28:40.306Z,99362.38
2022-10-09T00:33:43.593Z,99356.66
2022-10-09T00:38:48.039Z,99358.63
2022-10-09T00:43:53.950Z,99357.88
2022-10-09T00:49:05.195Z,99355.41
2022-10-09T00:54:13.013Z,99357.72
2022-10-09T00:59:16.564Z,99356.88
2022-10-09T01:04:19.341Z,99358.81
2022-10-09T01:09:28.687Z,99358.06
2022-10-09T01:14:37.554Z,99347.88
2022-10-09T01:20:04.497Z,99349.78
2022-10-09T01:25:10.273Z,99359.59
2022-10-09T01:30:14.729Z,99339.66
2022-10-09T01:35:19.049Z,99346.16
2022-10-09T01:40:22.937Z,99342.81
2022-10-09T01:45:36.891Z,99343.63
2022-10-09T01:50:44.279Z,99335.78
2022-10-09T01:55:52.140Z,99341.38
2022-10-09T02:01:03.504Z,99336.25
2022-10-09T02:06:08.893Z,99327.22
2022-10-09T02:11:12.222Z,99325.59
2022-10-09T02:16:22.147Z,99334.44
2022-10-09T02:21:30.850Z,99325.06
2022-10-09T02:26:33.773Z,99323.34
2022-10-09T02:31:40.004Z,99327.97
2022-10-09T02:36:42.773Z,99327.97
2022-10-09T02:41:45.493Z,99325.59
2022-10-09T02:46:49.614Z,99316.28
2022-10-09T02:51:52.734Z,99314.44
2022-10-09T02:56:55.409Z,99322.50
2022-10-09T03:01:59.702Z,99314.66
2022-10-09T03:07:03.151Z,99319.94
2022-10-09T03:12:06.382Z,99318.22
2022-10-09T03:17:10.430Z,99324.00
2022-10-09T03:22:13.141Z,99322.81
2022-10-09T03:27:15.830Z,99328.84
2022-10-09T03:32:20.782Z,99316.91
2022-10-09T03:37:23.603Z,99328.56
2022-10-09T03:42:26.450Z,99319.56
2022-10-09T03:47:30.784Z,99321.19
2022-10-09T03:52:33.535Z,99315.19
2022-10-09T03:57:37.017Z,99313.34
2022-10-09T04:02:41.283Z,99308.94
2022-10-09T04:07:44.144Z,99309.84
2022-10-09T04:12:47.164Z,99303.53
2022-10-09T04:17:51.580Z,99301.03
2022-10-09T04:22:54.303Z,99302.72
2022-10-09T04:27:56.985Z,99304.78
2022-10-09T04:33:01.084Z,99307.53
2022-10-09T04:38:03.841Z,99308.47
2022-10-09T04:43:06.684Z,99314.66
2022-10-09T04:48:10.793Z,99297.91
2022-10-09T04:53:13.763Z,99296.44
2022-10-09T04:58:16.495Z,99294.13
2022-10-09T05:03:20.678Z,99298.31
2022-10-09T05:08:23.449Z,99291.22
2022-10-09T05:13:26.439Z,99303.97
2022-10-09T05:18:31.829Z,99293.66
2022-10-09T05:23:35.595Z,99306.91
2022-10-09T05:28:38.897Z,99299.88
2022-10-09T05:33:43.227Z,99297.31
2022-10-09T05:38:46.149Z,99300.31
2022-10-09T05:43:50.347Z,99304.41
2022-10-09T05:48:56.454Z,99305.34
2022-10-09T05:54:02.142Z,99299.38
2022-10-09T05:59:06.678Z,99302.72
2022-10-09T06:04:15.123Z,99290.50
2022-10-09T06:09:19.690Z,99292.16
2022-10-09T06:19:52.795Z,99299.03
2022-10-09T06:24:55.482Z,99289.69
2022-10-09T06:29:58.856Z,99296.06
2022-10-09T06:35:02.982Z,99305.34
2022-10-09T06:40:06.597Z,99302.78
2022-10-09T06:45:10.526Z,99308.41
2022-10-09T06:50:16.105Z,99305.69
2022-10-09T06:55:18.882Z,99309.66
2022-10-09T07:00:21.671Z,99314.16
2022-10-09T07:05:25.787Z,99307.69
2022-10-09T07:10:28.759Z,99308.94
2022-10-09T07:15:31.802Z,99306.78
2022-10-09T07:20:37.491Z,99309.16
2022-10-09T07:25:40.217Z,99305.31
2022-10-09T07:30:43.631Z,99302.09
2022-10-09T07:35:55.259Z,99312.34
2022-10-09T07:41:01.032Z,99313.28
2022-10-09T07:46:04.990Z,99312.25
2022-10-09T07:51:10.915Z,99315.50
2022-10-09T07:56:18.501Z,99307.75
2022-10-09T08:01:22.111Z,99303.28
2022-10-09T08:06:27.687Z,99300.38
2022-10-09T08:11:31.202Z,99292.00
2022-10-09T08:16:33.969Z,99290.63
2022-10-09T08:21:38.207Z,99295.97
2022-10-09T08:26:40.980Z,99285.00
2022-10-09T08:31:43.793Z,99284.56
2022-10-09T08:36:48.143Z,99288.34
2022-10-09T08:41:53.794Z,99276.25
2022-10-09T08:47:08.345Z,99277.75
2022-10-09T08:52:25.631Z,99270.53
2022-10-09T08:57:32.196Z,99282.16
2022-10-09T09:02:48.673Z,99275.50
2022-10-09T09:08:02.185Z,99260.63
2022-10-09T09:13:20.383Z,99248.44
2022-10-09T09:18:40.721Z,99248.53
2022-10-09T09:23:48.673Z,99246.59
2022-10-09T09:28:56.590Z,99235.66
2022-10-09T09:34:04.292Z,99231.91
2022-10-09T09:44:35.897Z,99223.06
2022-10-09T09:49:38.668Z,99211.13
2022-10-09T09:54:49.743Z,99205.81
2022-10-09T09:59:52.577Z,99196.50
2022-10-09T10:04:59.653Z,99190.19
2022-10-09T10:10:05.841Z,99186.41
2022-10-09T10:15:18.750Z,99171.06
2022-10-09T10:20:21.899Z,99165.69
2022-10-09T10:25:30.721Z,99157.81
2022-10-09T10:30:36.462Z,99152.03
2022-10-09T10:35:42.333Z,99138.69
2022-10-09T10:40:51.843Z,99132.78
2022-10-09T10:46:03.607Z,99127.81
2022-10-09T10:51:17.449Z,99121.19
2022-10-09T10:56:29.441Z,99122.19
2022-10-09T11:01:42.620Z,99113.19
2022-10-09T11:06:54.500Z,99112.03
2022-10-09T11:12:15.573Z,99108.66
2022-10-09T11:17:33.949Z,99094.16
2022-10-09T11:22:59.170Z,99093.31
2022-10-09T11:28:08.473Z,99079.25
2022-10-09T11:33:27.699Z,99078.63
2022-10-09T11:38:36.155Z,99066.97
2022-10-09T11:44:14.639Z,99063.38
2022-10-09T11:49:26.144Z,99056.34
2022-10-09T11:54:30.297Z,99043.91
2022-10-09T11:59:36.279Z,99038.34
2022-10-09T12:04:54.358Z,99033.44
2022-10-09T12:10:06.108Z,99023.31
2022-10-09T12:15:25.599Z,99018.28
2022-10-09T12:20:30.166Z,99007.25
2022-10-09T12:25:41.576Z,99001.13
2022-10-09T12:30:49.613Z,98988.38
2022-10-09T12:36:04.600Z,98978.66
2022-10-09T12:41:19.333Z,98970.09
2022-10-09T12:46:34.559Z,98966.25
2022-10-09T12:51:38.750Z,98954.69
2022-10-09T12:56:41.531Z,98948.94
2022-10-09T13:01:45.332Z,98944.28
2022-10-09T13:06:52.361Z,98945.81
2022-10-09T13:12:00.199Z,98930.41
2022-10-09T13:17:04.349Z,98938.38
2022-10-09T13:22:19.489Z,98918.28
2022-10-09T13:27:25.037Z,98918.53
2022-10-09T13:32:28.220Z,98914.03
2022-10-09T13:37:32.493Z,98908.78
2022-10-09T13:42:37.972Z,98899.84
2022-10-09T13:47:40.706Z,98893.97
2022-10-09T13:52:44.919Z,98884.00
2022-10-09T13:57:49.109Z,98876.31
2022-10-09T14:02:52.405Z,98864.44
2022-10-09T14:07:56.679Z,98863.88
2022-10-09T14:12:59.396Z,98850.69
2022-10-09T14:18:02.164Z,98850.63
2022-10-09T14:23:06.266Z,98839.00
2022-10-09T14:28:09.461Z,98840.22
2022-10-09T14:33:12.570Z,98828.84
2022-10-09T14:38:16.681Z,98820.66
2022-10-09T14:43:20.028Z,98809.22
2022-10-09T14:48:22.799Z,98797.19
2022-10-09T14:53:26.944Z,98789.41
2022-10-09T14:58:31.270Z,98780.81
2022-10-09T15:03:35.657Z,98779.38
2022-10-09T15:08:41.787Z,98768.09
2022-10-09T15:13:44.507Z,98760.72
2022-10-09T15:18:49.466Z,98752.75
2022-10-09T15:23:54.816Z,98741.69
2022-10-09T15:28:58.002Z,98744.38
2022-10-09T15:34:03.219Z,98747.00
2022-10-09T15:39:08.892Z,98745.28
2022-10-09T15:44:16.230Z,98736.09
2022-10-09T15:49:19.352Z,98733.91
2022-10-09T15:54:23.831Z,98728.63
2022-10-09T15:59:27.367Z,98715.19
2022-10-09T16:04:55.841Z,98718.16
2022-10-09T16:09:59.924Z,98708.25
2022-10-09T16:15:03.373Z,98703.34
2022-10-09T16:20:07.476Z,98711.78
2022-10-09T16:25:12.471Z,98705.19
2022-10-09T16:30:15.378Z,98709.06
2022-10-09T16:35:18.257Z,98708.09
2022-10-09T16:40:32.691Z,98707.88
2022-10-09T16:45:45.071Z,98715.38
2022-10-09T16:50:47.794Z,98710.59
2022-10-09T16:55:52.348Z,98710.84
2022-10-09T17:01:04.911Z,98715.59
2022-10-09T17:06:12.649Z,98712.00
2022-10-09T17:11:17.862Z,98720.09
2022-10-09T17:16:22.746Z,98717.78
2022-10-09T17:21:29.258Z,98717.31
2022-10-09T17:26:39.310Z,98718.88
2022-10-09T17:31:42.334Z,98723.38
2022-10-09T17:36:46.065Z,98719.00
2022-10-09T17:41:50.338Z,98719.38
2022-10-09T17:46:53.051Z,98711.34
2022-10-09T17:51:56.439Z,98710.94
2022-10-09T17:57:02.203Z,98703.72
2022-10-09T18:02:05.652Z,98693.44
2022-10-09T18:07:08.429Z,98691.97
2022-10-09T18:12:12.694Z,98692.22
2022-10-09T18:17:15.585Z,98687.84
2022-10-09T18:22:18.826Z,98688.59
2022-10-09T18:27:23.838Z,98680.72
2022-10-09T18:32:26.788Z,98676.22
2022-10-09T18:37:29.757Z,98670.16
2022-10-09T18:42:33.997Z,98668.47
2022-10-09T18:47:36.988Z,98670.63
2022-10-09T18:52:42.398Z,98667.47
2022-10-09T18:57:48.054Z,98663.72
2022-10-09T19:02:51.509Z,98656.31
2022-10-09T19:07:55.523Z,98658.72
2022-10-09T19:12:59.607Z,98655.56
2022-10-09T19:18:03.513Z,98656.72
2022-10-09T19:23:06.444Z,98660.94
2022-10-09T19:28:10.587Z,98649.28
2022-10-09T19:33:13.743Z,98640.44
2022-10-09T19:38:17.607Z,98634.00
2022-10-09T19:43:23.490Z,98638.31
2022-10-09T19:48:26.383Z,98630.75
2022-10-09T19:53:29.386Z,98636.28
2022-10-09T19:58:33.476Z,98626.00
2022-10-09T20:03:36.242Z,98627.19
2022-10-09T20:08:40.931Z,98619.78
2022-10-09T20:13:45.041Z,98627.47
2022-10-09T20:18:47.850Z,98622.06
2022-10-09T20:23:50.749Z,98618.91
2022-10-09T20:28:54.958Z,98618.91
2022-10-09T20:33:57.666Z,98621.38
2022-10-09T20:39:03.492Z,98623.50
2022-10-09T20:44:07.944Z,98619.28
2022-10-09T20:49:13.362Z,98625.75
2022-10-09T20:54:18.405Z,98612.69
2022-10-09T20:59:22.873Z,98619.75
2022-10-09T21:04:25.852Z,98613.28
2022-10-09T21:09:32.976Z,98610.22
2022-10-09T21:14:37.708Z,98610.44
2022-10-09T21:19:40.437Z,98609.16
2022-10-09T21:24:43.278Z,98599.72
2022-10-09T21:29:47.451Z,98591.13
2022-10-09T21:34:50.561Z,98599.63
2022-10-09T21:39:53.367Z,98597.94
2022-10-09T21:44:57.609Z,98602.28
2022-10-09T21:50:00.416Z,98592.94
2022-10-09T21:55:04.366Z,98594.31
2022-10-09T22:00:10.023Z,98588.78
2022-10-09T22:05:12.801Z,98587.41
2022-10-09T22:10:15.629Z,98594.06
2022-10-09T22:15:19.967Z,98585.50
2022-10-09T22:20:22.713Z,98587.28
2022-10-09T22:25:25.431Z,98577.56
2022-10-09T22:31:04.076Z,98579.44
2022-10-09T22:36:09.182Z,98564.50
2022-10-09T22:41:14.496Z,98567.56
2022-10-09T22:46:20.755Z,98569.38
2022-10-09T22:51:25.507Z,98563.13
2022-10-09T22:56:31.346Z,98559.94
2022-10-09T23:01:39.386Z,98551.44
2022-10-09T23:06:43.308Z,98545.94
2022-10-09T23:11:46.097Z,98544.84
2022-10-09T23:16:50.519Z,98544.41
2022-10-09T23:21:53.685Z,98541.09
2022-10-09T23:26:56.422Z,98535.06
2022-10-09T23:32:00.533Z,98534.31
2022-10-09T23:37:03.765Z,98532.69
2022-10-09T23:42:06.560Z,98526.09
2022-10-09T23:47:10.612Z,98525.38
2022-10-09T23:52:13.332Z,98520.41
2022-10-09T23:57:16.089Z,98517.84
